sensor_id;sensor_type;location;lat;lon;timestamp;pressure;altitude;pressure_sealevel;temperature;humidity
61292;BME280;47165;42.664;23.368;2023-12-29T00:00:25;95705.03;;;5.50;55.05
61292;BME280;47165;42.664;23.368;2023-12-29T00:02:51;95698.25;;;5.44;55.68
61292;BME280;47165;42.664;23.368;2023-12-29T00:05:17;95704.44;;;5.38;56.70
61292;BME280;47165;42.664;23.368;2023-12-29T00:07:42;95700.97;;;5.39;56.92
61292;BME280;47165;42.664;23.368;2023-12-29T00:10:08;95688.25;;;5.30;57.56
61292;BME280;47165;42.664;23.368;2023-12-29T00:12:33;95694.19;;;5.34;56.57
61292;BME280;47165;42.664;23.368;2023-12-29T00:14:59;95701.19;;;5.30;56.04
61292;BME280;47165;42.664;23.368;2023-12-29T00:17:25;95700.38;;;5.28;56.27
61292;BME280;47165;42.664;23.368;2023-12-29T00:19:50;95682.59;;;5.14;56.31
61292;BME280;47165;42.664;23.368;2023-12-29T00:22:16;95704.88;;;5.20;56.93
61292;BME280;47165;42.664;23.368;2023-12-29T00:24:41;95705.63;;;5.25;56.77
61292;BME280;47165;42.664;23.368;2023-12-29T00:27:07;95692.06;;;5.15;56.67
61292;BME280;47165;42.664;23.368;2023-12-29T00:29:33;95696.19;;;5.22;56.65
61292;BME280;47165;42.664;23.368;2023-12-29T00:31:59;95703.00;;;5.27;56.28
61292;BME280;47165;42.664;23.368;2023-12-29T00:34:25;95705.81;;;5.17;56.70
61292;BME280;47165;42.664;23.368;2023-12-29T00:36:51;95707.72;;;5.11;56.89
61292;BME280;47165;42.664;23.368;2023-12-29T00:39:16;95706.69;;;5.16;56.87
61292;BME280;47165;42.664;23.368;2023-12-29T00:41:42;95703.97;;;5.22;57.04
61292;BME280;47165;42.664;23.368;2023-12-29T00:44:07;95703.13;;;5.22;58.15
61292;BME280;47165;42.664;23.368;2023-12-29T00:46:33;95705.00;;;5.15;58.24
61292;BME280;47165;42.664;23.368;2023-12-29T00:48:59;95701.63;;;5.12;59.03
61292;BME280;47165;42.664;23.368;2023-12-29T00:51:24;95694.78;;;5.11;59.10
61292;BME280;47165;42.664;23.368;2023-12-29T00:53:50;95689.75;;;5.04;59.27
61292;BME280;47165;42.664;23.368;2023-12-29T00:56:16;95695.75;;;5.07;59.69
61292;BME280;47165;42.664;23.368;2023-12-29T00:58:42;95691.22;;;5.15;58.51
61292;BME280;47165;42.664;23.368;2023-12-29T01:01:08;95690.50;;;5.08;58.65
61292;BME280;47165;42.664;23.368;2023-12-29T01:03:34;95670.97;;;4.96;58.76
61292;BME280;47165;42.664;23.368;2023-12-29T01:06:00;95681.16;;;5.02;58.58
61292;BME280;47165;42.664;23.368;2023-12-29T01:08:26;95680.16;;;5.08;58.43
61292;BME280;47165;42.664;23.368;2023-12-29T01:10:53;95679.41;;;5.04;58.75
61292;BME280;47165;42.664;23.368;2023-12-29T01:13:19;95684.56;;;5.04;59.05
61292;BME280;47165;42.664;23.368;2023-12-29T01:15:44;95682.72;;;5.10;57.91
61292;BME280;47165;42.664;23.368;2023-12-29T01:18:11;95681.16;;;5.02;57.89
61292;BME280;47165;42.664;23.368;2023-12-29T01:20:36;95688.97;;;5.01;57.92
61292;BME280;47165;42.664;23.368;2023-12-29T01:23:02;95694.13;;;5.02;57.95
61292;BME280;47165;42.664;23.368;2023-12-29T01:25:27;95692.63;;;4.92;58.08
61292;BME280;47165;42.664;23.368;2023-12-29T01:27:53;95689.38;;;4.84;58.87
61292;BME280;47165;42.664;23.368;2023-12-29T01:30:18;95691.09;;;4.83;58.97
61292;BME280;47165;42.664;23.368;2023-12-29T01:32:43;95686.94;;;4.78;60.02
61292;BME280;47165;42.664;23.368;2023-12-29T01:35:09;95687.66;;;4.83;59.60
61292;BME280;47165;42.664;23.368;2023-12-29T01:37:34;95682.59;;;4.78;59.38
61292;BME280;47165;42.664;23.368;2023-12-29T01:40:00;95695.50;;;4.80;59.55
61292;BME280;47165;42.664;23.368;2023-12-29T01:42:25;95682.50;;;4.81;59.39
61292;BME280;47165;42.664;23.368;2023-12-29T01:44:51;95686.84;;;4.81;59.39
61292;BME280;47165;42.664;23.368;2023-12-29T01:47:19;95690.38;;;4.77;59.50
61292;BME280;47165;42.664;23.368;2023-12-29T01:49:46;95700.00;;;4.72;59.16
61292;BME280;47165;42.664;23.368;2023-12-29T01:52:14;95695.78;;;4.68;59.85
61292;BME280;47165;42.664;23.368;2023-12-29T01:54:41;95688.97;;;4.63;60.55
61292;BME280;47165;42.664;23.368;2023-12-29T01:57:08;95684.72;;;4.61;61.31
61292;BME280;47165;42.664;23.368;2023-12-29T01:59:34;95687.22;;;4.66;61.67
61292;BME280;47165;42.664;23.368;2023-12-29T02:02:01;95669.38;;;4.53;61.56
61292;BME280;47165;42.664;23.368;2023-12-29T02:04:27;95689.69;;;4.70;61.92
61292;BME280;47165;42.664;23.368;2023-12-29T02:06:54;95677.72;;;4.66;62.03
61292;BME280;47165;42.664;23.368;2023-12-29T02:09:19;95685.34;;;4.71;60.64
61292;BME280;47165;42.664;23.368;2023-12-29T02:11:46;95681.69;;;4.79;60.84
61292;BME280;47165;42.664;23.368;2023-12-29T02:14:12;95671.56;;;4.72;61.83
61292;BME280;47165;42.664;23.368;2023-12-29T02:19:42;95670.78;;;4.67;61.05
61292;BME280;47165;42.664;23.368;2023-12-29T02:22:10;95663.06;;;4.65;61.05
61292;BME280;47165;42.664;23.368;2023-12-29T02:24:36;95660.34;;;4.71;60.53
61292;BME280;47165;42.664;23.368;2023-12-29T02:30:48;95650.72;;;4.78;59.66
61292;BME280;47165;42.664;23.368;2023-12-29T02:33:19;95651.06;;;4.62;60.72
61292;BME280;47165;42.664;23.368;2023-12-29T02:35:46;95645.06;;;4.60;61.09
61292;BME280;47165;42.664;23.368;2023-12-29T02:38:14;95644.28;;;4.57;61.51
61292;BME280;47165;42.664;23.368;2023-12-29T02:40:40;95639.91;;;4.60;60.86
61292;BME280;47165;42.664;23.368;2023-12-29T02:43:08;95635.63;;;4.59;60.51
61292;BME280;47165;42.664;23.368;2023-12-29T02:45:33;95634.81;;;4.57;60.82
61292;BME280;47165;42.664;23.368;2023-12-29T02:47:59;95631.34;;;4.57;60.51
61292;BME280;47165;42.664;23.368;2023-12-29T02:50:24;95632.28;;;4.54;59.49
61292;BME280;47165;42.664;23.368;2023-12-29T02:52:50;95625.56;;;4.47;59.84
61292;BME280;47165;42.664;23.368;2023-12-29T02:55:15;95624.94;;;4.36;60.74
61292;BME280;47165;42.664;23.368;2023-12-29T02:57:41;95617.28;;;4.33;60.79
61292;BME280;47165;42.664;23.368;2023-12-29T03:00:07;95618.97;;;4.34;61.50
61292;BME280;47165;42.664;23.368;2023-12-29T03:02:32;95599.41;;;4.22;61.56
61292;BME280;47165;42.664;23.368;2023-12-29T03:04:58;95610.34;;;4.35;61.94
61292;BME280;47165;42.664;23.368;2023-12-29T03:07:24;95613.13;;;4.26;62.28
61292;BME280;47165;42.664;23.368;2023-12-29T03:09:49;95605.50;;;4.19;62.69
61292;BME280;47165;42.664;23.368;2023-12-29T03:12:15;95601.16;;;4.21;62.69
61292;BME280;47165;42.664;23.368;2023-12-29T03:14:41;95595.88;;;4.26;62.91
61292;BME280;47165;42.664;23.368;2023-12-29T03:17:06;95601.16;;;4.21;62.60
61292;BME280;47165;42.664;23.368;2023-12-29T03:19:31;95600.06;;;4.32;62.00
61292;BME280;47165;42.664;23.368;2023-12-29T03:21:57;95597.47;;;4.32;62.19
61292;BME280;47165;42.664;23.368;2023-12-29T03:24:22;95595.09;;;4.22;62.98
61292;BME280;47165;42.664;23.368;2023-12-29T03:26:48;95592.66;;;4.16;63.07
61292;BME280;47165;42.664;23.368;2023-12-29T03:29:13;95594.44;;;4.14;63.52
61292;BME280;47165;42.664;23.368;2023-12-29T03:31:39;95602.31;;;4.08;63.09
61292;BME280;47165;42.664;23.368;2023-12-29T03:34:05;95598.91;;;4.06;63.42
61292;BME280;47165;42.664;23.368;2023-12-29T03:36:30;95599.88;;;4.02;63.20
61292;BME280;47165;42.664;23.368;2023-12-29T03:38:56;95600.59;;;4.07;63.20
61292;BME280;47165;42.664;23.368;2023-12-29T03:41:21;95603.28;;;4.04;63.33
61292;BME280;47165;42.664;23.368;2023-12-29T03:43:47;95592.88;;;4.06;62.60
61292;BME280;47165;42.664;23.368;2023-12-29T03:46:22;95590.25;;;4.07;63.46
61292;BME280;47165;42.664;23.368;2023-12-29T03:48:48;95605.84;;;4.04;64.02
61292;BME280;47165;42.664;23.368;2023-12-29T03:51:14;95606.81;;;4.00;64.55
61292;BME280;47165;42.664;23.368;2023-12-29T03:53:40;95619.72;;;4.00;64.37
61292;BME280;47165;42.664;23.368;2023-12-29T03:56:12;95615.19;;;4.10;62.61
61292;BME280;47165;42.664;23.368;2023-12-29T03:58:38;95607.63;;;4.02;62.17
61292;BME280;47165;42.664;23.368;2023-12-29T04:01:04;95612.91;;;3.96;63.19
61292;BME280;47165;42.664;23.368;2023-12-29T04:03:29;95623.31;;;3.93;61.16
61292;BME280;47165;42.664;23.368;2023-12-29T04:05:55;95611.16;;;3.98;61.08
61292;BME280;47165;42.664;23.368;2023-12-29T04:08:20;95609.50;;;3.94;62.36
61292;BME280;47165;42.664;23.368;2023-12-29T04:10:45;95607.88;;;3.90;63.54
61292;BME280;47165;42.664;23.368;2023-12-29T04:13:11;95613.06;;;3.88;63.96
61292;BME280;47165;42.664;23.368;2023-12-29T04:15:37;95618.13;;;3.93;64.21
61292;BME280;47165;42.664;23.368;2023-12-29T04:18:02;95611.19;;;3.95;63.10
61292;BME280;47165;42.664;23.368;2023-12-29T04:20:28;95604.53;;;3.85;62.05
61292;BME280;47165;42.664;23.368;2023-12-29T04:22:54;95612.19;;;3.89;61.03
61292;BME280;47165;42.664;23.368;2023-12-29T04:25:20;95609.78;;;3.81;63.03
61292;BME280;47165;42.664;23.368;2023-12-29T04:27:46;95616.72;;;3.79;63.10
61292;BME280;47165;42.664;23.368;2023-12-29T04:30:11;95611.53;;;3.79;62.92
61292;BME280;47165;42.664;23.368;2023-12-29T04:32:37;95606.28;;;3.82;62.79
61292;BME280;47165;42.664;23.368;2023-12-29T04:35:02;95609.81;;;3.80;63.14
61292;BME280;47165;42.664;23.368;2023-12-29T04:37:28;95608.91;;;3.81;63.69
61292;BME280;47165;42.664;23.368;2023-12-29T04:39:54;95597.88;;;3.73;62.59
61292;BME280;47165;42.664;23.368;2023-12-29T04:42:19;95615.75;;;3.83;61.53
61292;BME280;47165;42.664;23.368;2023-12-29T04:44:44;95613.22;;;3.80;61.33
61292;BME280;47165;42.664;23.368;2023-12-29T04:47:10;95615.91;;;3.76;60.60
61292;BME280;47165;42.664;23.368;2023-12-29T04:49:35;95611.84;;;3.64;61.13
61292;BME280;47165;42.664;23.368;2023-12-29T04:52:01;95616.25;;;3.59;61.69
61292;BME280;47165;42.664;23.368;2023-12-29T04:54:27;95614.50;;;3.59;61.91
61292;BME280;47165;42.664;23.368;2023-12-29T04:56:52;95612.88;;;3.55;61.78
61292;BME280;47165;42.664;23.368;2023-12-29T04:59:18;95606.09;;;3.50;62.14
61292;BME280;47165;42.664;23.368;2023-12-29T05:01:43;95601.81;;;3.49;62.11
61292;BME280;47165;42.664;23.368;2023-12-29T05:04:09;95596.69;;;3.47;62.37
61292;BME280;47165;42.664;23.368;2023-12-29T05:06:34;95601.88;;;3.46;62.67
61292;BME280;47165;42.664;23.368;2023-12-29T05:09:00;95599.16;;;3.52;61.79
61292;BME280;47165;42.664;23.368;2023-12-29T05:11:25;95593.25;;;3.47;61.46
61292;BME280;47165;42.664;23.368;2023-12-29T05:13:51;95595.78;;;3.48;62.20
61292;BME280;47165;42.664;23.368;2023-12-29T05:16:16;95593.38;;;3.40;61.58
61292;BME280;47165;42.664;23.368;2023-12-29T05:18:42;95594.28;;;3.38;62.45
61292;BME280;47165;42.664;23.368;2023-12-29T05:21:14;95585.53;;;3.45;62.59
61292;BME280;47165;42.664;23.368;2023-12-29T05:23:40;95588.16;;;3.43;61.33
61292;BME280;47165;42.664;23.368;2023-12-29T05:26:05;95595.06;;;3.41;60.73
61292;BME280;47165;42.664;23.368;2023-12-29T05:28:31;95606.31;;;3.39;60.84
61292;BME280;47165;42.664;23.368;2023-12-29T05:30:56;95589.97;;;3.38;60.72
61292;BME280;47165;42.664;23.368;2023-12-29T05:33:21;95603.03;;;3.31;61.93
61292;BME280;47165;42.664;23.368;2023-12-29T05:35:47;95601.25;;;3.34;62.23
61292;BME280;47165;42.664;23.368;2023-12-29T05:38:12;95607.38;;;3.27;63.05
61292;BME280;47165;42.664;23.368;2023-12-29T05:40:38;95598.78;;;3.28;63.04
61292;BME280;47165;42.664;23.368;2023-12-29T05:43:04;95597.78;;;3.34;63.19
61292;BME280;47165;42.664;23.368;2023-12-29T05:45:29;95602.94;;;3.34;63.47
61292;BME280;47165;42.664;23.368;2023-12-29T05:47:55;95606.13;;;3.48;62.87
61292;BME280;47165;42.664;23.368;2023-12-29T05:50:20;95613.22;;;3.38;62.96
61292;BME280;47165;42.664;23.368;2023-12-29T05:52:46;95602.09;;;3.33;63.45
61292;BME280;47165;42.664;23.368;2023-12-29T05:55:18;95605.66;;;3.28;64.48
61292;BME280;47165;42.664;23.368;2023-12-29T05:57:44;95603.16;;;3.23;64.18
61292;BME280;47165;42.664;23.368;2023-12-29T06:00:10;95602.22;;;3.27;64.28
61292;BME280;47165;42.664;23.368;2023-12-29T06:02:40;95597.09;;;3.26;64.85
61292;BME280;47165;42.664;23.368;2023-12-29T06:05:07;95596.94;;;3.33;64.88
61292;BME280;47165;42.664;23.368;2023-12-29T06:07:33;95599.53;;;3.33;64.48
61292;BME280;47165;42.664;23.368;2023-12-29T06:09:59;95599.59;;;3.30;64.78
61292;BME280;47165;42.664;23.368;2023-12-29T06:12:24;95590.09;;;3.32;64.62
61292;BME280;47165;42.664;23.368;2023-12-29T06:14:49;95579.59;;;3.41;64.23
61292;BME280;47165;42.664;23.368;2023-12-29T06:17:15;95596.03;;;3.36;63.01
61292;BME280;47165;42.664;23.368;2023-12-29T06:19:41;95593.53;;;3.31;63.10
61292;BME280;47165;42.664;23.368;2023-12-29T06:22:06;95597.72;;;3.38;62.23
61292;BME280;47165;42.664;23.368;2023-12-29T06:24:37;95594.59;;;3.21;62.51
61292;BME280;47165;42.664;23.368;2023-12-29T06:27:02;95595.41;;;3.23;62.61
61292;BME280;47165;42.664;23.368;2023-12-29T06:29:28;95593.75;;;3.22;62.23
61292;BME280;47165;42.664;23.368;2023-12-29T06:31:53;95602.53;;;3.12;63.30
61292;BME280;47165;42.664;23.368;2023-12-29T06:34:19;95605.97;;;3.11;63.16
61292;BME280;47165;42.664;23.368;2023-12-29T06:36:45;95603.38;;;3.11;63.18
61292;BME280;47165;42.664;23.368;2023-12-29T06:39:10;95606.69;;;3.19;63.29
61292;BME280;47165;42.664;23.368;2023-12-29T06:41:36;95608.44;;;3.17;62.65
61292;BME280;47165;42.664;23.368;2023-12-29T06:44:01;95605.97;;;3.11;64.47
61292;BME280;47165;42.664;23.368;2023-12-29T06:46:26;95589.78;;;3.01;64.92
61292;BME280;47165;42.664;23.368;2023-12-29T06:48:52;95601.47;;;3.22;64.66
61292;BME280;47165;42.664;23.368;2023-12-29T06:51:18;95604.81;;;3.27;64.33
61292;BME280;47165;42.664;23.368;2023-12-29T06:53:48;95609.16;;;3.25;64.24
61292;BME280;47165;42.664;23.368;2023-12-29T06:56:15;95604.06;;;3.22;62.77
61292;BME280;47165;42.664;23.368;2023-12-29T06:58:40;95613.50;;;3.21;63.10
61292;BME280;47165;42.664;23.368;2023-12-29T07:01:06;95608.31;;;3.25;63.10
61292;BME280;47165;42.664;23.368;2023-12-29T07:03:31;95616.13;;;3.20;63.77
61292;BME280;47165;42.664;23.368;2023-12-29T07:06:00;95616.06;;;3.23;63.43
61292;BME280;47165;42.664;23.368;2023-12-29T07:08:26;95596.34;;;3.19;63.81
61292;BME280;47165;42.664;23.368;2023-12-29T07:10:51;95614.19;;;3.31;64.32
61292;BME280;47165;42.664;23.368;2023-12-29T07:13:17;95606.47;;;3.30;64.30
61292;BME280;47165;42.664;23.368;2023-12-29T07:15:42;95598.66;;;3.34;64.35
61292;BME280;47165;42.664;23.368;2023-12-29T07:18:08;95598.72;;;3.31;64.84
61292;BME280;47165;42.664;23.368;2023-12-29T07:20:33;95597.75;;;3.37;64.78
61292;BME280;47165;42.664;23.368;2023-12-29T07:22:59;95604.53;;;3.42;64.71
61292;BME280;47165;42.664;23.368;2023-12-29T07:25:25;95601.88;;;3.46;64.56
61292;BME280;47165;42.664;23.368;2023-12-29T07:27:50;95601.81;;;3.49;64.33
61292;BME280;47165;42.664;23.368;2023-12-29T07:30:16;95588.03;;;3.50;64.66
61292;BME280;47165;42.664;23.368;2023-12-29T07:32:41;95593.16;;;3.53;64.53
61292;BME280;47165;42.664;23.368;2023-12-29T07:35:07;95596.47;;;3.58;64.87
61292;BME280;47165;42.664;23.368;2023-12-29T07:37:33;95587.03;;;3.57;64.68
61292;BME280;47165;42.664;23.368;2023-12-29T07:39:58;95577.44;;;3.62;64.61
61292;BME280;47165;42.664;23.368;2023-12-29T07:42:24;95579.88;;;3.70;64.75
61292;BME280;47165;42.664;23.368;2023-12-29T07:44:49;95586.78;;;3.69;64.92
61292;BME280;47165;42.664;23.368;2023-12-29T07:47:17;95589.38;;;3.69;64.64
61292;BME280;47165;42.664;23.368;2023-12-29T07:49:42;95584.75;;;3.83;64.63
61292;BME280;47165;42.664;23.368;2023-12-29T07:52:08;95585.59;;;3.86;64.51
61292;BME280;47165;42.664;23.368;2023-12-29T07:54:35;95596.63;;;3.92;64.68
61292;BME280;47165;42.664;23.368;2023-12-29T07:57:00;95597.56;;;3.88;64.85
61292;BME280;47165;42.664;23.368;2023-12-29T07:59:25;95605.19;;;3.94;64.91
61292;BME280;47165;42.664;23.368;2023-12-29T08:01:52;95607.75;;;3.96;65.09
61292;BME280;47165;42.664;23.368;2023-12-29T08:04:17;95604.22;;;4.00;64.66
61292;BME280;47165;42.664;23.368;2023-12-29T08:06:43;95604.84;;;4.10;64.57
61292;BME280;47165;42.664;23.368;2023-12-29T08:09:08;95606.56;;;4.11;63.98
61292;BME280;47165;42.664;23.368;2023-12-29T08:11:34;95585.19;;;4.04;63.89
61292;BME280;47165;42.664;23.368;2023-12-29T08:14:01;95601.28;;;4.15;64.06
61292;BME280;47165;42.664;23.368;2023-12-29T08:16:26;95601.25;;;4.17;64.00
61292;BME280;47165;42.664;23.368;2023-12-29T08:18:52;95603.94;;;4.12;64.05
61292;BME280;47165;42.664;23.368;2023-12-29T08:21:18;95598.78;;;4.12;64.15
61292;BME280;47165;42.664;23.368;2023-12-29T08:23:45;95604.69;;;4.17;64.35
61292;BME280;47165;42.664;23.368;2023-12-29T08:26:11;95595.09;;;4.22;64.24
61292;BME280;47165;42.664;23.368;2023-12-29T08:28:37;95606.28;;;4.23;63.71
61292;BME280;47165;42.664;23.368;2023-12-29T08:31:02;95607.91;;;4.29;63.50
61292;BME280;47165;42.664;23.368;2023-12-29T08:33:28;95612.16;;;4.30;63.53
61292;BME280;47165;42.664;23.368;2023-12-29T08:35:53;95610.38;;;4.32;63.77
61292;BME280;47165;42.664;23.368;2023-12-29T08:38:19;95606.94;;;4.33;63.61
61292;BME280;47165;42.664;23.368;2023-12-29T08:40:44;95607.75;;;4.35;63.54
61292;BME280;47165;42.664;23.368;2023-12-29T08:43:09;95605.94;;;4.38;63.71
61292;BME280;47165;42.664;23.368;2023-12-29T08:45:35;95612.69;;;4.44;63.25
61292;BME280;47165;42.664;23.368;2023-12-29T08:48:01;95607.66;;;4.38;63.64
61292;BME280;47165;42.664;23.368;2023-12-29T08:50:28;95588.78;;;4.34;63.54
61292;BME280;47165;42.664;23.368;2023-12-29T08:52:53;95603.09;;;4.49;63.48
61292;BME280;47165;42.664;23.368;2023-12-29T08:55:19;95603.03;;;4.52;63.59
61292;BME280;47165;42.664;23.368;2023-12-29T08:57:44;95602.03;;;4.58;63.38
61292;BME280;47165;42.664;23.368;2023-12-29T09:00:10;95607.91;;;4.64;63.70
61292;BME280;47165;42.664;23.368;2023-12-29T09:02:35;95608.59;;;4.71;63.54
61292;BME280;47165;42.664;23.368;2023-12-29T09:05:01;95613.72;;;4.74;64.03
61292;BME280;47165;42.664;23.368;2023-12-29T09:07:26;95607.47;;;4.83;63.68
61292;BME280;47165;42.664;23.368;2023-12-29T09:09:53;95608.13;;;4.91;63.80
61292;BME280;47165;42.664;23.368;2023-12-29T09:12:19;95607.09;;;4.98;63.61
61292;BME280;47165;42.664;23.368;2023-12-29T09:14:44;95598.19;;;5.09;63.61
61292;BME280;47165;42.664;23.368;2023-12-29T09:17:10;95595.34;;;5.18;63.98
61292;BME280;47165;42.664;23.368;2023-12-29T09:19:36;95586.44;;;5.28;63.19
61292;BME280;47165;42.664;23.368;2023-12-29T09:22:01;95587.19;;;5.33;63.32
61292;BME280;47165;42.664;23.368;2023-12-29T09:24:28;95591.28;;;5.40;63.35
61292;BME280;47165;42.664;23.368;2023-12-29T09:26:53;95579.00;;;5.49;63.38
61292;BME280;47165;42.664;23.368;2023-12-29T09:29:19;95573.44;;;5.62;63.24
61292;BME280;47165;42.664;23.368;2023-12-29T09:31:45;95573.06;;;5.75;63.25
61292;BME280;47165;42.664;23.368;2023-12-29T09:34:10;95578.78;;;5.86;63.06
61292;BME280;47165;42.664;23.368;2023-12-29T09:36:36;95567.28;;;5.96;62.88
61292;BME280;47165;42.664;23.368;2023-12-29T09:39:01;95569.63;;;6.06;62.86
61292;BME280;47165;42.664;23.368;2023-12-29T09:41:31;95568.22;;;6.23;63.13
61292;BME280;47165;42.664;23.368;2023-12-29T09:44:01;95565.97;;;6.39;62.75
61292;BME280;47165;42.664;23.368;2023-12-29T09:46:31;95559.47;;;6.54;62.49
61292;BME280;47165;42.664;23.368;2023-12-29T09:48:59;95550.28;;;6.71;61.82
61292;BME280;47165;42.664;23.368;2023-12-29T09:51:29;95560.34;;;6.80;61.59
61292;BME280;47165;42.664;23.368;2023-12-29T09:53:55;95553.06;;;6.91;61.71
61292;BME280;47165;42.664;23.368;2023-12-29T09:56:24;95552.47;;;7.08;61.30
61292;BME280;47165;42.664;23.368;2023-12-29T09:58:51;95539.91;;;7.21;60.87
61292;BME280;47165;42.664;23.368;2023-12-29T10:01:18;95535.19;;;7.32;60.88
61292;BME280;47165;42.664;23.368;2023-12-29T10:03:44;95534.75;;;7.44;60.90
61292;BME280;47165;42.664;23.368;2023-12-29T10:06:12;95532.28;;;7.65;60.73
61292;BME280;47165;42.664;23.368;2023-12-29T10:08:45;95525.47;;;7.84;60.31
61292;BME280;47165;42.664;23.368;2023-12-29T10:11:11;95522.22;;;8.01;59.67
61292;BME280;47165;42.664;23.368;2023-12-29T10:13:38;95513.66;;;8.21;59.20
61292;BME280;47165;42.664;23.368;2023-12-29T10:16:38;95506.66;;;8.45;58.69
61292;BME280;47165;42.664;23.368;2023-12-29T10:24:35;95496.81;;;9.15;56.80
61292;BME280;47165;42.664;23.368;2023-12-29T10:27:01;95487.97;;;9.38;56.20
61292;BME280;47165;42.664;23.368;2023-12-29T10:29:27;95489.41;;;9.64;55.25
61292;BME280;47165;42.664;23.368;2023-12-29T10:31:53;95470.09;;;9.87;54.16
61292;BME280;47165;42.664;23.368;2023-12-29T10:34:20;95473.16;;;10.15;53.35
61292;BME280;47165;42.664;23.368;2023-12-29T10:36:50;95461.34;;;10.44;52.19
61292;BME280;47165;42.664;23.368;2023-12-29T10:39:17;95452.31;;;10.69;51.64
61292;BME280;47165;42.664;23.368;2023-12-29T10:41:42;95457.28;;;10.91;51.20
61292;BME280;47165;42.664;23.368;2023-12-29T10:44:08;95449.94;;;11.15;50.98
61292;BME280;47165;42.664;23.368;2023-12-29T10:46:33;95452.88;;;11.42;50.06
61292;BME280;47165;42.664;23.368;2023-12-29T10:49:10;95444.06;;;11.76;49.20
61292;BME280;47165;42.664;23.368;2023-12-29T10:51:36;95434.91;;;12.01;48.58
61292;BME280;47165;42.664;23.368;2023-12-29T10:54:02;95432.41;;;12.30;48.17
61292;BME280;47165;42.664;23.368;2023-12-29T10:56:29;95421.28;;;12.56;47.34
61292;BME280;47165;42.664;23.368;2023-12-29T10:59:13;95420.25;;;12.89;46.71
61292;BME280;47165;42.664;23.368;2023-12-29T11:01:38;95417.09;;;13.13;45.60
61292;BME280;47165;42.664;23.368;2023-12-29T11:04:06;95416.66;;;13.35;45.72
61292;BME280;47165;42.664;23.368;2023-12-29T11:06:43;95412.25;;;13.64;44.61
61292;BME280;47165;42.664;23.368;2023-12-29T11:09:12;95410.34;;;13.80;44.35
61292;BME280;47165;42.664;23.368;2023-12-29T11:11:38;95400.91;;;14.05;43.58
61292;BME280;47165;42.664;23.368;2023-12-29T11:14:04;95395.00;;;14.28;43.32
61292;BME280;47165;42.664;23.368;2023-12-29T11:16:30;95394.13;;;14.55;43.05
61292;BME280;47165;42.664;23.368;2023-12-29T11:18:58;95391.25;;;14.73;41.47
61292;BME280;47165;42.664;23.368;2023-12-29T11:21:26;95389.88;;;14.93;41.80
61292;BME280;47165;42.664;23.368;2023-12-29T11:23:53;95385.38;;;15.07;41.78
61292;BME280;47165;42.664;23.368;2023-12-29T11:26:18;95389.91;;;15.18;40.65
61292;BME280;47165;42.664;23.368;2023-12-29T11:28:47;95380.00;;;15.35;40.58
61292;BME280;47165;42.664;23.368;2023-12-29T11:31:16;95381.97;;;15.57;40.51
61292;BME280;47165;42.664;23.368;2023-12-29T11:33:50;95380.13;;;15.70;39.68
61292;BME280;47165;42.664;23.368;2023-12-29T11:36:24;95378.84;;;15.88;39.94
61292;BME280;47165;42.664;23.368;2023-12-29T11:39:02;95372.03;;;16.10;39.60
61292;BME280;47165;42.664;23.368;2023-12-29T11:44:05;95367.88;;;16.43;39.18
61292;BME280;47165;42.664;23.368;2023-12-29T11:46:40;95372.44;;;16.52;38.41
61292;BME280;47165;42.664;23.368;2023-12-29T11:49:08;95362.88;;;16.62;38.62
61292;BME280;47165;42.664;23.368;2023-12-29T11:51:45;95358.25;;;16.77;38.25
61292;BME280;47165;42.664;23.368;2023-12-29T11:54:26;95360.59;;;16.93;38.17
61292;BME280;47165;42.664;23.368;2023-12-29T11:56:53;95357.38;;;17.01;38.01
61292;BME280;47165;42.664;23.368;2023-12-29T12:01:52;95355.13;;;17.19;37.06
61292;BME280;47165;42.664;23.368;2023-12-29T12:04:37;95349.97;;;17.40;37.60
61292;BME280;47165;42.664;23.368;2023-12-29T12:10:28;95346.00;;;17.68;37.14
61292;BME280;47165;42.664;23.368;2023-12-29T12:12:58;95349.34;;;17.70;36.88
61292;BME280;47165;42.664;23.368;2023-12-29T12:17:57;95341.25;;;17.94;36.23
61292;BME280;47165;42.664;23.368;2023-12-29T12:20:23;95331.28;;;17.98;35.63
61292;BME280;47165;42.664;23.368;2023-12-29T12:23:01;95332.81;;;18.12;35.57
61292;BME280;47165;42.664;23.368;2023-12-29T12:25:29;95333.84;;;18.32;35.83
61292;BME280;47165;42.664;23.368;2023-12-29T12:27:56;95328.75;;;18.40;35.70
61292;BME280;47165;42.664;23.368;2023-12-29T12:30:22;95335.91;;;18.49;35.28
61292;BME280;47165;42.664;23.368;2023-12-29T12:32:58;95336.31;;;18.65;35.01
61292;BME280;47165;42.664;23.368;2023-12-29T12:35:24;95337.00;;;18.79;34.94
61292;BME280;47165;42.664;23.368;2023-12-29T12:38:13;95339.50;;;19.01;34.75
61292;BME280;47165;42.664;23.368;2023-12-29T12:40:40;95339.41;;;19.13;34.49
61292;BME280;47165;42.664;23.368;2023-12-29T12:43:06;95345.16;;;19.18;34.49
61292;BME280;47165;42.664;23.368;2023-12-29T12:45:41;95338.41;;;19.35;33.86
61292;BME280;47165;42.664;23.368;2023-12-29T12:48:21;95334.69;;;19.47;34.04
61292;BME280;47165;42.664;23.368;2023-12-29T12:50:48;95332.34;;;19.54;33.35
61292;BME280;47165;42.664;23.368;2023-12-29T12:53:14;95332.97;;;19.67;33.70
61292;BME280;47165;42.664;23.368;2023-12-29T12:55:47;95337.91;;;19.81;33.69
61292;BME280;47165;42.664;23.368;2023-12-29T12:58:16;95336.50;;;19.87;33.21
61292;BME280;47165;42.664;23.368;2023-12-29T13:00:41;95332.47;;;19.93;32.88
61292;BME280;47165;42.664;23.368;2023-12-29T13:03:07;95333.63;;;20.00;33.11
61292;BME280;47165;42.664;23.368;2023-12-29T13:05:35;95336.44;;;20.08;33.04
61292;BME280;47165;42.664;23.368;2023-12-29T13:08:01;95327.06;;;20.04;32.63
61292;BME280;47165;42.664;23.368;2023-12-29T13:10:28;95335.56;;;20.07;32.75
61292;BME280;47165;42.664;23.368;2023-12-29T13:12:55;95334.47;;;20.10;32.73
61292;BME280;47165;42.664;23.368;2023-12-29T13:15:21;95330.97;;;20.09;32.60
61292;BME280;47165;42.664;23.368;2023-12-29T13:17:53;95325.66;;;20.09;32.38